createdAt,value
2022-09-30T00:01:16.572Z,2.10
2022-09-30T00:03:43.826Z,2.08
2022-09-30T00:06:11.495Z,2.17
2022-09-30T00:08:39.115Z,2.63
2022-09-30T00:11:16.552Z,2.38
2022-09-30T00:13:44.862Z,2.83
2022-09-30T00:16:12.678Z,2.67
2022-09-30T00:18:40.567Z,2.13
2022-09-30T00:21:08.723Z,2.42
2022-09-30T00:23:40.081Z,2.70
2022-09-30T00:26:12.163Z,2.50
2022-09-30T00:28:40.231Z,2.45
2022-09-30T00:31:09.756Z,2.65
2022-09-30T00:33:37.120Z,2.35
2022-09-30T00:36:05.182Z,2.25
2022-09-30T00:38:32.768Z,2.47
2022-09-30T00:41:01.966Z,2.80
2022-09-30T00:43:51.595Z,2.78
2022-09-30T00:46:44.690Z,2.65
2022-09-30T00:49:20.512Z,2.30
2022-09-30T00:51:53.761Z,2.13
2022-09-30T00:54:23.594Z,2.67
2022-09-30T00:56:53.292Z,2.10
2022-09-30T00:59:24.071Z,2.30
2022-09-30T01:01:51.898Z,2.47
2022-09-30T01:04:24.565Z,2.10
2022-09-30T01:06:52.383Z,3.00
2022-09-30T01:09:20.204Z,2.20
2022-09-30T01:11:47.929Z,2.13
2022-09-30T01:14:25.052Z,2.50
2022-09-30T01:17:02.249Z,2.50
2022-09-30T01:19:44.521Z,2.28
2022-09-30T01:22:19.143Z,2.10
2022-09-30T01:25:01.443Z,2.58
2022-09-30T01:27:55.158Z,2.67
2022-09-30T01:30:24.036Z,2.28
2022-09-30T01:33:10.447Z,2.75
2022-09-30T01:36:17.372Z,1.98
2022-09-30T01:38:50.066Z,2.45
2022-09-30T01:41:29.716Z,2.08
2022-09-30T01:43:56.977Z,2.45
2022-09-30T01:46:24.234Z,2.30
2022-09-30T01:48:57.410Z,2.50
2022-09-30T01:51:27.608Z,2.00
2022-09-30T01:54:13.644Z,2.08
2022-09-30T01:56:45.733Z,2.72
2022-09-30T01:59:12.906Z,2.20
2022-09-30T02:01:58.198Z,2.05
2022-09-30T02:04:41.161Z,2.35
2022-09-30T02:07:11.107Z,1.90
2022-09-30T02:09:40.915Z,2.40
2022-09-30T02:12:12.760Z,2.30
2022-09-30T02:14:45.743Z,2.28
2022-09-30T02:17:25.032Z,2.20
2022-09-30T02:19:54.919Z,2.40
2022-09-30T02:22:28.703Z,2.08
2022-09-30T02:25:04.606Z,2.13
2022-09-30T02:27:42.328Z,2.30
2022-09-30T02:30:11.908Z,2.25
2022-09-30T02:32:41.943Z,2.58
2022-09-30T02:35:14.065Z,2.00
2022-09-30T02:37:51.270Z,2.05
2022-09-30T02:40:36.512Z,2.20
2022-09-30T02:43:05.384Z,2.42
2022-09-30T02:45:46.203Z,2.13
2022-09-30T02:48:26.125Z,2.03
2022-09-30T02:51:04.852Z,2.30
2022-09-30T02:53:36.984Z,2.22
2022-09-30T02:56:11.543Z,2.35
2022-09-30T02:58:39.602Z,2.17
2022-09-30T03:01:11.150Z,2.30
2022-09-30T03:03:51.429Z,2.10
2022-09-30T03:06:19.370Z,2.42
2022-09-30T03:08:46.803Z,2.40
2022-09-30T03:11:19.387Z,2.10
2022-09-30T03:13:49.705Z,2.75
2022-09-30T03:16:32.484Z,2.63
2022-09-30T03:19:05.622Z,2.03
2022-09-30T03:21:36.050Z,2.22
2022-09-30T03:24:21.800Z,2.17
2022-09-30T03:27:11.078Z,2.33
2022-09-30T03:29:46.458Z,2.05
2022-09-30T03:32:25.923Z,2.42
2022-09-30T03:35:01.532Z,1.90
2022-09-30T03:37:35.045Z,2.58
2022-09-30T03:40:10.211Z,1.90
2022-09-30T03:42:48.895Z,1.83
2022-09-30T03:45:29.619Z,1.70
2022-09-30T03:48:01.508Z,1.85
2022-09-30T03:50:29.242Z,2.25
2022-09-30T03:52:56.555Z,2.13
2022-09-30T03:55:25.659Z,2.03
2022-09-30T03:57:54.357Z,2.00
2022-09-30T04:00:21.738Z,2.13
2022-09-30T04:02:48.516Z,2.30
2022-09-30T04:05:15.862Z,1.73
2022-09-30T04:07:43.167Z,2.28
2022-09-30T04:10:10.615Z,2.00
2022-09-30T04:12:37.819Z,2.40
2022-09-30T04:15:06.242Z,1.83
2022-09-30T04:17:33.468Z,2.72
2022-09-30T04:20:00.392Z,2.50
2022-09-30T04:22:27.869Z,2.45
2022-09-30T04:24:55.070Z,2.10
2022-09-30T04:27:22.301Z,2.53
2022-09-30T04:29:49.482Z,2.35
2022-09-30T04:32:16.696Z,2.42
2022-09-30T04:34:43.891Z,2.17
2022-09-30T04:37:11.316Z,2.20
2022-09-30T04:39:38.581Z,2.70
2022-09-30T04:42:06.250Z,1.98
2022-09-30T04:44:35.423Z,3.15
2022-09-30T04:47:02.616Z,3.08
2022-09-30T04:49:29.417Z,2.15
2022-09-30T04:51:56.240Z,2.30
2022-09-30T04:54:24.316Z,2.40
2022-09-30T04:56:51.656Z,2.33
2022-09-30T04:59:18.612Z,2.25
2022-09-30T05:01:45.966Z,2.20
2022-09-30T05:04:13.359Z,2.20
2022-09-30T05:06:41.005Z,2.25
2022-09-30T05:09:08.363Z,2.33
2022-09-30T05:11:38.413Z,2.53
2022-09-30T05:14:09.205Z,2.35
2022-09-30T05:16:36.821Z,2.05
2022-09-30T05:19:04.517Z,2.05
2022-09-30T05:21:31.716Z,2.08
2022-09-30T05:23:58.997Z,2.53
2022-09-30T05:26:26.297Z,2.15
2022-09-30T05:28:53.623Z,2.33
2022-09-30T05:31:21.038Z,2.25
2022-09-30T05:33:48.728Z,2.25
2022-09-30T05:36:16.788Z,1.88
2022-09-30T05:38:44.233Z,1.80
2022-09-30T05:41:13.081Z,2.53
2022-09-30T05:43:41.044Z,2.72
2022-09-30T05:46:08.318Z,2.20
2022-09-30T05:48:35.158Z,2.95
2022-09-30T05:51:02.436Z,2.60
2022-09-30T05:53:31.928Z,2.60
2022-09-30T05:55:59.415Z,2.50
2022-09-30T05:58:27.475Z,2.38
2022-09-30T06:00:55.115Z,2.05
2022-09-30T06:03:22.168Z,2.10
2022-09-30T06:05:49.867Z,2.58
2022-09-30T06:08:17.264Z,2.63
2022-09-30T06:10:45.179Z,3.03
2022-09-30T06:13:12.414Z,2.45
2022-09-30T06:15:41.325Z,2.90
2022-09-30T06:18:09.918Z,3.38
2022-09-30T06:20:37.544Z,3.03
2022-09-30T06:23:05.098Z,2.40
2022-09-30T06:25:32.623Z,2.55
2022-09-30T06:27:59.996Z,2.50
2022-09-30T06:30:30.499Z,2.50
2022-09-30T06:33:01.302Z,2.33
2022-09-30T06:35:28.996Z,2.30
2022-09-30T06:37:56.225Z,2.33
2022-09-30T06:40:23.503Z,2.45
2022-09-30T06:42:50.806Z,2.25
2022-09-30T06:45:29.247Z,2.97
2022-09-30T06:48:00.710Z,3.08
2022-09-30T06:50:28.512Z,2.63
2022-09-30T06:53:02.617Z,2.65
2022-09-30T06:55:30.611Z,3.33
2022-09-30T06:57:57.824Z,2.75
2022-09-30T07:00:25.977Z,2.70
2022-09-30T07:02:55.166Z,2.50
2022-09-30T07:05:23.356Z,2.75
2022-09-30T07:07:51.982Z,3.38
2022-09-30T07:10:19.505Z,3.03
2022-09-30T07:12:51.030Z,3.25
2022-09-30T07:15:22.919Z,3.17
2022-09-30T07:17:54.041Z,3.40
2022-09-30T07:20:21.339Z,2.58
2022-09-30T07:22:48.705Z,3.15
2022-09-30T07:25:16.096Z,2.60
2022-09-30T07:27:43.955Z,2.60
2022-09-30T07:30:16.295Z,3.15
2022-09-30T07:32:48.130Z,2.67
2022-09-30T07:35:15.379Z,2.75
2022-09-30T07:37:42.600Z,3.53
2022-09-30T07:40:10.058Z,2.95
2022-09-30T07:42:45.388Z,2.70
2022-09-30T07:45:17.093Z,3.13
2022-09-30T07:47:44.410Z,2.78
2022-09-30T07:50:15.509Z,3.17
2022-09-30T07:52:42.782Z,3.25
2022-09-30T07:55:09.968Z,3.42
2022-09-30T07:57:37.184Z,3.28
2022-09-30T08:00:17.340Z,3.25
2022-09-30T08:02:52.158Z,3.05
2022-09-30T08:05:19.371Z,3.35
2022-09-30T08:07:47.403Z,3.15
2022-09-30T08:10:14.776Z,3.70
2022-09-30T08:12:42.007Z,3.58
2022-09-30T08:15:09.747Z,3.17
2022-09-30T08:17:36.532Z,3.17
2022-09-30T08:20:03.869Z,2.75
2022-09-30T08:22:31.108Z,3.15
2022-09-30T08:24:58.303Z,3.33
2022-09-30T08:27:25.589Z,3.05
2022-09-30T08:29:55.808Z,3.53
2022-09-30T08:32:23.935Z,2.92
2022-09-30T08:34:51.441Z,2.90
2022-09-30T08:37:18.712Z,3.35
2022-09-30T08:39:48.304Z,3.15
2022-09-30T08:42:35.499Z,2.88
2022-09-30T08:45:36.343Z,2.88
2022-09-30T08:48:09.601Z,2.92
2022-09-30T08:50:49.078Z,2.72
2022-09-30T08:53:20.029Z,3.65
2022-09-30T08:55:47.198Z,2.63
2022-09-30T08:58:24.670Z,3.08
2022-09-30T09:00:57.050Z,3.63
2022-09-30T09:03:28.659Z,3.17
2022-09-30T09:06:06.616Z,2.80
2022-09-30T09:09:12.211Z,3.20
2022-09-30T09:11:58.109Z,3.20
2022-09-30T09:14:31.434Z,3.10
2022-09-30T09:17:26.666Z,3.15
2022-09-30T09:20:03.215Z,3.20
2022-09-30T09:22:31.314Z,3.10
2022-09-30T09:24:58.893Z,2.90
2022-09-30T09:27:56.695Z,3.78
2022-09-30T09:30:25.105Z,2.90
2022-09-30T09:32:55.257Z,3.47
2022-09-30T09:35:25.217Z,3.03
2022-09-30T09:38:18.837Z,3.15
2022-09-30T09:41:04.994Z,3.60
2022-09-30T09:43:46.105Z,3.63
2022-09-30T09:46:18.614Z,2.95
2022-09-30T09:48:46.147Z,3.15
2022-09-30T09:51:31.357Z,3.65
2022-09-30T09:54:01.176Z,3.28
2022-09-30T09:56:33.354Z,3.45
2022-09-30T09:59:13.159Z,2.95
2022-09-30T10:01:42.374Z,3.30
2022-09-30T10:04:17.863Z,2.88
2022-09-30T10:06:45.022Z,2.75
2022-09-30T10:09:36.272Z,2.65
2022-09-30T10:12:06.570Z,2.60
2022-09-30T10:14:33.801Z,2.55
2022-09-30T10:17:18.333Z,2.65
2022-09-30T10:19:50.848Z,2.22
2022-09-30T10:22:19.443Z,2.88
2022-09-30T10:24:46.620Z,2.55
2022-09-30T10:27:30.619Z,2.67
2022-09-30T10:29:57.991Z,2.60
2022-09-30T10:32:26.079Z,2.63
2022-09-30T10:35:01.663Z,2.83
2022-09-30T10:37:28.864Z,2.83
2022-09-30T10:39:56.023Z,2.17
2022-09-30T10:42:26.978Z,2.30
2022-09-30T10:45:19.186Z,2.53
2022-09-30T10:47:49.107Z,2.58
2022-09-30T10:50:20.672Z,2.58
2022-09-30T10:52:50.977Z,2.70
2022-09-30T10:55:21.969Z,2.45
2022-09-30T10:57:51.147Z,2.25
2022-09-30T11:00:23.682Z,2.72
2022-09-30T11:02:54.854Z,2.63
2022-09-30T11:05:23.035Z,2.40
2022-09-30T11:08:11.771Z,2.20
2022-09-30T11:10:39.050Z,2.20
2022-09-30T11:13:44.896Z,2.90
2022-09-30T11:16:17.531Z,2.30
2022-09-30T11:18:45.371Z,2.47
2022-09-30T11:21:27.701Z,2.30
2022-09-30T11:24:01.048Z,2.10
2022-09-30T11:26:31.352Z,2.40
2022-09-30T11:29:01.529Z,1.77
2022-09-30T11:31:36.752Z,2.78
2022-09-30T11:34:22.807Z,2.28
2022-09-30T11:36:49.985Z,2.38
2022-09-30T11:39:46.868Z,2.30
2022-09-30T11:42:17.149Z,2.00
2022-09-30T11:44:45.396Z,2.17
2022-09-30T11:47:29.449Z,2.33
2022-09-30T11:49:59.821Z,2.30
2022-09-30T11:52:27.038Z,1.65
2022-09-30T11:54:54.240Z,2.30
2022-09-30T11:57:34.292Z,2.00
2022-09-30T12:00:14.330Z,2.13
2022-09-30T12:02:52.336Z,1.80
2022-09-30T12:05:40.557Z,1.70
2022-09-30T12:08:14.014Z,1.70
2022-09-30T12:10:52.958Z,1.55
2022-09-30T12:13:25.606Z,1.63
2022-09-30T12:15:55.734Z,1.83
2022-09-30T12:18:22.954Z,1.30
2022-09-30T12:21:03.269Z,2.00
2022-09-30T12:23:36.652Z,1.50
2022-09-30T12:26:04.819Z,1.67
2022-09-30T12:28:58.944Z,2.20
2022-09-30T12:31:50.297Z,1.60
2022-09-30T12:34:38.109Z,1.48
2022-09-30T12:37:23.131Z,1.42
2022-09-30T12:40:06.942Z,1.55
2022-09-30T12:42:53.080Z,1.40
2022-09-30T12:45:32.465Z,1.50
2022-09-30T12:48:00.975Z,1.40
2022-09-30T12:50:29.711Z,1.50
2022-09-30T12:52:57.969Z,1.42
2022-09-30T12:55:29.092Z,1.23
2022-09-30T12:57:56.373Z,1.20
2022-09-30T13:00:26.620Z,1.20
2022-09-30T13:03:08.943Z,1.23
2022-09-30T13:05:47.307Z,1.30
2022-09-30T13:08:14.490Z,1.00
2022-09-30T13:10:41.199Z,1.27
2022-09-30T13:13:11.160Z,1.33
2022-09-30T13:15:39.949Z,1.05
2022-09-30T13:18:23.950Z,1.20
2022-09-30T13:21:10.685Z,1.02
2022-09-30T13:23:41.327Z,0.82
2022-09-30T13:26:27.375Z,0.60
2022-09-30T13:29:15.695Z,0.93
2022-09-30T13:31:46.327Z,0.80
2022-09-30T13:34:22.018Z,0.93
2022-09-30T13:36:52.670Z,0.80
2022-09-30T13:39:25.339Z,0.98
2022-09-30T13:42:01.522Z,0.77
2022-09-30T13:44:39.372Z,0.80
2022-09-30T13:47:11.130Z,0.93
2022-09-30T13:49:46.399Z,0.60
2022-09-30T13:52:22.139Z,0.77
2022-09-30T13:54:51.222Z,0.70
2022-09-30T13:57:53.189Z,0.90
2022-09-30T14:00:22.172Z,0.75
2022-09-30T14:02:52.745Z,0.70
2022-09-30T14:05:25.839Z,0.70
2022-09-30T14:08:11.731Z,0.85
2022-09-30T14:11:03.107Z,0.80
2022-09-30T14:13:39.834Z,0.80
2022-09-30T14:16:07.089Z,0.70
2022-09-30T14:18:53.387Z,0.88
2022-09-30T14:23:57.663Z,0.70
2022-09-30T14:27:00.249Z,0.88
2022-09-30T14:29:36.233Z,0.85
2022-09-30T14:32:11.705Z,0.47
2022-09-30T14:34:39.232Z,0.55
2022-09-30T14:37:07.076Z,0.50
2022-09-30T14:39:34.721Z,0.60
2022-09-30T14:42:02.670Z,0.70
2022-09-30T14:44:33.884Z,0.82
2022-09-30T14:47:02.664Z,0.80
2022-09-30T14:49:36.058Z,0.70
2022-09-30T14:52:04.019Z,0.70
2022-09-30T14:54:32.555Z,0.85
2022-09-30T14:57:01.140Z,0.63
2022-09-30T14:59:33.180Z,0.60
2022-09-30T15:02:05.153Z,0.40
2022-09-30T15:04:38.494Z,0.60
2022-09-30T15:07:10.142Z,0.57
2022-09-30T15:09:38.633Z,0.77
2022-09-30T15:12:22.590Z,0.75
2022-09-30T15:14:54.300Z,0.50
2022-09-30T15:17:27.054Z,0.50
2022-09-30T15:19:55.902Z,0.73
2022-09-30T15:22:24.578Z,0.70
2022-09-30T15:24:52.310Z,0.77
2022-09-30T15:27:32.980Z,0.70
2022-09-30T15:30:01.880Z,0.60
2022-09-30T15:32:34.348Z,0.70
2022-09-30T15:35:27.823Z,0.60
2022-09-30T15:37:55.411Z,0.70
2022-09-30T15:40:43.172Z,0.52
2022-09-30T15:43:11.855Z,0.75
2022-09-30T15:45:43.959Z,0.90
2022-09-30T15:48:14.473Z,0.90
2022-09-30T15:50:43.345Z,0.77
2022-09-30T15:53:25.433Z,0.80
2022-09-30T15:55:55.630Z,0.70
2022-09-30T15:58:39.767Z,1.17
2022-09-30T16:01:14.500Z,0.93
2022-09-30T16:03:59.284Z,0.82
2022-09-30T16:06:32.970Z,1.23
2022-09-30T16:09:18.560Z,1.25
2022-09-30T16:11:50.070Z,1.40
2022-09-30T16:14:27.502Z,1.58
2022-09-30T16:16:56.615Z,2.05
2022-09-30T16:19:25.178Z,1.08
2022-09-30T16:21:54.731Z,0.90
2022-09-30T16:24:21.486Z,1.00
2022-09-30T16:26:52.703Z,1.15
2022-09-30T16:29:19.694Z,1.30
2022-09-30T16:31:47.618Z,1.10
2022-09-30T16:34:24.166Z,0.90
2022-09-30T16:36:51.632Z,1.10
2022-09-30T16:39:19.649Z,1.15
2022-09-30T16:41:46.964Z,1.00
2022-09-30T16:44:14.400Z,1.08
2022-09-30T16:46:41.647Z,0.85
2022-09-30T16:49:19.337Z,1.50
2022-09-30T16:51:46.922Z,0.90
2022-09-30T16:54:14.503Z,0.82
2022-09-30T16:56:41.805Z,0.65
2022-09-30T16:59:13.470Z,0.80
2022-09-30T17:01:40.995Z,0.90
2022-09-30T17:04:09.078Z,0.88
2022-09-30T17:06:37.016Z,0.90
2022-09-30T17:09:05.491Z,0.90
2022-09-30T17:11:33.615Z,1.02
2022-09-30T17:14:01.406Z,0.80
2022-09-30T17:16:29.228Z,1.10
2022-09-30T17:18:56.550Z,1.25
2022-09-30T17:21:25.286Z,1.10
2022-09-30T17:23:52.984Z,1.00
2022-09-30T17:26:20.367Z,1.02
2022-09-30T17:28:48.016Z,1.90
2022-09-30T17:31:15.409Z,1.70
2022-09-30T17:33:43.511Z,1.70
2022-09-30T17:36:13.684Z,1.52
2022-09-30T17:38:41.431Z,1.33
2022-09-30T17:41:30.182Z,1.17
2022-09-30T17:44:02.762Z,1.50
2022-09-30T17:46:40.247Z,0.90
2022-09-30T17:49:09.015Z,0.90
2022-09-30T17:51:37.694Z,0.90
2022-09-30T17:54:07.059Z,1.13
2022-09-30T17:56:36.201Z,2.22
2022-09-30T17:59:04.677Z,7.50
2022-09-30T18:01:32.397Z,9.50
2022-09-30T18:04:01.467Z,4.68
2022-09-30T18:06:28.837Z,4.05
2022-09-30T18:08:56.516Z,1.77
2022-09-30T18:11:26.134Z,1.50
2022-09-30T18:13:58.096Z,1.27
2022-09-30T18:16:30.134Z,1.10
2022-09-30T18:18:59.255Z,0.90
2022-09-30T18:21:26.722Z,1.00
2022-09-30T18:23:57.349Z,1.52
2022-09-30T18:26:33.580Z,1.20
2022-09-30T18:29:03.163Z,1.15
2022-09-30T18:31:41.048Z,1.13
2022-09-30T18:34:08.431Z,1.15
2022-09-30T18:36:37.279Z,1.20
2022-09-30T18:39:04.865Z,1.67
2022-09-30T18:41:34.474Z,1.13
2022-09-30T18:44:02.815Z,1.50
2022-09-30T18:46:30.867Z,1.40
2022-09-30T18:48:58.578Z,1.23
2022-09-30T18:51:26.155Z,1.60
2022-09-30T18:53:56.008Z,1.80
2022-09-30T18:56:23.775Z,2.20
2022-09-30T18:58:52.291Z,2.00
2022-09-30T19:01:21.103Z,1.63
2022-09-30T19:03:48.870Z,1.60
2022-09-30T19:06:16.304Z,1.70
2022-09-30T19:08:43.679Z,1.33
2022-09-30T19:11:15.612Z,1.23
2022-09-30T19:13:44.161Z,1.25
2022-09-30T19:16:12.303Z,1.13
2022-09-30T19:18:40.388Z,1.58
2022-09-30T19:21:10.178Z,1.20
2022-09-30T19:23:38.089Z,1.25
2022-09-30T19:26:06.147Z,1.30
2022-09-30T19:28:37.867Z,1.20
2022-09-30T19:31:12.647Z,1.50
2022-09-30T19:33:49.556Z,1.50
2022-09-30T19:36:20.322Z,1.40
2022-09-30T19:38:47.836Z,1.70
2022-09-30T19:41:16.411Z,1.50
2022-09-30T19:43:45.551Z,1.40
2022-09-30T19:46:13.297Z,1.50
2022-09-30T19:48:42.021Z,1.50
2022-09-30T19:51:11.686Z,1.70
2022-09-30T19:53:41.781Z,1.33
2022-09-30T19:56:13.036Z,1.85
2022-09-30T19:58:41.764Z,1.60
2022-09-30T20:01:09.587Z,1.75
2022-09-30T20:03:37.356Z,1.77
2022-09-30T20:06:09.986Z,1.50
2022-09-30T20:08:37.606Z,1.45
2022-09-30T20:11:12.279Z,1.60
2022-09-30T20:13:40.120Z,1.88
2022-09-30T20:16:11.907Z,1.70
2022-09-30T20:18:40.043Z,1.45
2022-09-30T20:21:15.611Z,2.15
2022-09-30T20:23:45.777Z,2.45
2022-09-30T20:26:14.813Z,1.85
2022-09-30T20:28:42.820Z,1.50
2022-09-30T20:31:12.492Z,2.03
2022-09-30T20:33:40.457Z,1.98
2022-09-30T20:36:08.656Z,1.75
2022-09-30T20:38:35.495Z,1.75
2022-09-30T20:41:03.628Z,1.75
2022-09-30T20:43:32.317Z,1.60
2022-09-30T20:46:01.455Z,1.70
2022-09-30T20:48:33.717Z,1.33
2022-09-30T20:51:01.275Z,1.75
2022-09-30T20:53:28.058Z,1.33
2022-09-30T20:55:55.268Z,1.52
2022-09-30T20:58:22.088Z,1.92
2022-09-30T21:00:50.007Z,1.90
2022-09-30T21:03:17.265Z,1.80
2022-09-30T21:05:53.574Z,1.77
2022-09-30T21:08:20.918Z,1.65
2022-09-30T21:10:47.705Z,2.15
2022-09-30T21:13:15.582Z,1.95
2022-09-30T21:15:42.854Z,2.13
2022-09-30T21:18:10.168Z,2.20
2022-09-30T21:20:37.429Z,2.55
2022-09-30T21:23:04.951Z,2.53
2022-09-30T21:25:32.479Z,2.55
2022-09-30T21:27:59.898Z,2.78
2022-09-30T21:30:27.129Z,2.40
2022-09-30T21:32:54.336Z,2.40
2022-09-30T21:35:21.572Z,2.55
2022-09-30T21:37:48.610Z,2.38
2022-09-30T21:40:15.666Z,2.38
2022-09-30T21:42:42.868Z,2.35
2022-09-30T21:45:10.311Z,2.40
2022-09-30T21:47:37.084Z,2.00
2022-09-30T21:50:06.437Z,2.10
2022-09-30T21:52:33.981Z,2.03
2022-09-30T21:55:01.769Z,1.90
2022-09-30T21:57:29.084Z,1.67
2022-09-30T21:59:56.070Z,1.65
2022-09-30T22:02:23.343Z,1.60
2022-09-30T22:04:50.578Z,1.65
2022-09-30T22:07:17.828Z,1.55
2022-09-30T22:09:45.012Z,1.50
2022-09-30T22:12:12.201Z,1.30
2022-09-30T22:14:39.447Z,1.23
2022-09-30T22:17:09.844Z,1.40
2022-09-30T22:19:38.189Z,1.50
2022-09-30T22:22:05.467Z,1.08
2022-09-30T22:24:32.539Z,1.25
2022-09-30T22:26:59.724Z,1.77
2022-09-30T22:29:26.616Z,1.50
2022-09-30T22:31:53.937Z,1.40
2022-09-30T22:34:39.814Z,1.55
2022-09-30T22:37:26.601Z,1.95
2022-09-30T22:39:57.442Z,1.38
2022-09-30T22:42:29.236Z,1.80
2022-09-30T22:44:56.495Z,1.58
2022-09-30T22:47:23.925Z,1.35
2022-09-30T22:49:51.160Z,1.20
2022-09-30T22:52:18.400Z,1.48
2022-09-30T22:54:45.583Z,1.48
2022-09-30T22:57:13.415Z,1.80
2022-09-30T22:59:41.810Z,1.65
2022-09-30T23:02:09.177Z,1.55
2022-09-30T23:04:36.437Z,1.60
2022-09-30T23:07:05.810Z,1.85
2022-09-30T23:09:33.015Z,1.80
2022-09-30T23:12:00.498Z,2.10
2022-09-30T23:14:28.017Z,1.52
2022-09-30T23:16:55.273Z,1.70
2022-09-30T23:19:22.523Z,1.60
2022-09-30T23:21:49.696Z,1.80
2022-09-30T23:24:16.982Z,1.65
2022-09-30T23:26:44.219Z,2.00
2022-09-30T23:29:12.379Z,1.63
2022-09-30T23:32:17.516Z,1.38
2022-09-30T23:34:47.525Z,1.40
2022-09-30T23:37:14.262Z,1.55
2022-09-30T23:39:41.044Z,1.70
2022-09-30T23:42:08.237Z,1.70
2022-09-30T23:44:35.423Z,1.30
2022-09-30T23:47:17.881Z,1.40
2022-09-30T23:49:46.040Z,1.88
2022-09-30T23:52:13.617Z,1.38
2022-09-30T23:54:43.856Z,1.77
2022-09-30T23:57:11.680Z,1.38
2022-09-30T23:59:38.954Z,1.50
